createdAt,value
2023-05-05T07:07:41.547Z,18.90
2023-05-05T07:10:29.368Z,18.90
2023-05-05T07:13:17.279Z,18.64
2023-05-05T07:16:03.146Z,18.54
2023-05-05T07:18:48.546Z,18.68
2023-05-05T07:21:35.030Z,18.63
2023-05-05T07:24:21.525Z,18.76
2023-05-05T07:27:07.194Z,18.89
2023-05-05T07:29:53.120Z,19.11
2023-05-05T07:32:38.802Z,19.25
2023-05-05T07:35:24.082Z,19.32
2023-05-05T07:38:10.779Z,19.43
2023-05-05T07:40:56.422Z,19.66
2023-05-05T07:43:48.014Z,19.88
2023-05-05T07:46:36.852Z,19.98
2023-05-05T07:49:22.897Z,20.12
2023-05-05T07:52:08.629Z,20.29
2023-05-05T07:54:53.996Z,20.45
2023-05-05T07:57:39.906Z,20.51
2023-05-05T08:00:25.387Z,20.69
2023-05-05T08:03:12.162Z,20.79
2023-05-05T08:06:06.824Z,20.89
2023-05-05T08:08:53.610Z,21.29
2023-05-05T08:11:39.470Z,21.14
2023-05-05T08:14:24.951Z,21.30
2023-05-05T08:17:11.190Z,21.44
2023-05-05T08:19:57.439Z,21.64
2023-05-05T08:22:43.604Z,22.14
2023-05-05T08:25:29.620Z,22.31
2023-05-05T08:28:15.526Z,22.59
2023-05-05T08:31:01.485Z,26.04
2023-05-05T08:33:47.144Z,29.00
2023-05-05T08:36:33.578Z,30.87
2023-05-05T08:39:19.372Z,32.90
2023-05-05T08:42:05.354Z,33.66
2023-05-05T08:44:51.520Z,35.40
2023-05-05T08:47:37.708Z,35.78
2023-05-05T08:50:28.894Z,34.75
2023-05-05T08:53:18.505Z,34.08
2023-05-05T08:56:04.944Z,35.53
2023-05-05T08:58:51.925Z,35.47
2023-05-05T09:01:37.885Z,36.21
2023-05-05T09:04:27.120Z,37.00
